Terminal Aerodrome Forecast
Issued by NWS Louisville, KY

Home | Current Version | Previous Version | Text Only | Print | Product List | Glossary On
Versions: 1 2 3 4 5 6 7 8 9 10 11 12 13 14 15 16 17 18 19
862
FTUS43 KLMK 280527
TAFSDF
TAF
KSDF 280527Z 2806/2912 VRB04KT P6SM BKN250
     FM281400 15010G17KT P6SM SCT100 BKN200
     FM282100 18012G21KT P6SM VCSH SCT045 BKN100 PROB30 2821/2824
      -TSRA BKN045CB
     FM290600 18012KT 6SM -SHRA VCTS BKN035CB
     FM291100 19013KT P6SM BKN035=

USA.gov is the U.S. government's official web portal to all federal, state and local government web resources and services.